Terminal Aerodrome Forecast
Issued by NWS Binghamton, NY

Home | Current Version | Previous Version | Text Only | Print | Product List | Glossary On
Versions: 1 2 3 4 5 6 7 8 9 10 11 12 13 14 15 16 17 18 19 20 21 22 23
000
FTUS41 KBGM 122320
TAFSYR
TAF
KSYR 122320Z 1300/1324 27015KT P6SM OVC050
     FM130600 27016G23KT P6SM OVC025
      TEMPO 1308/1312 3SM -SN OVC015
     FM131200 28022G29KT 1 1/2SM -SN OVC025
     FM131700 28023G30KT 6SM -SN OVC025
     FM132000 27019G26KT 6SM -SN OVC050=

USA.gov is the U.S. government's official web portal to all federal, state and local government web resources and services.